Terminal Aerodrome Forecast
Issued by NWS

Home | Current Version | Previous Version | Text Only | Print | Product List | Glossary On
Versions: 1 2 3 4 5 6 7 8 9 10 11 12 13 14 15
000
FTUS45 KABQ 240536
TAFLVS
TAF
KLVS 240536Z 2406/2506 30006KT P6SM FEW200
     FM241600 20011KT P6SM FEW060 FEW200
     FM242000 22015G25KT P6SM VCTS SCT070CB BKN150
     FM242200 28012G20KT P6SM VCSH SCT060 BKN120
     FM250100 02010KT P6SM FEW060 BKN150=

USA.gov is the U.S. government's official web portal to all federal, state and local government web resources and services.